Navoi, Uzbekistan
Current Conditions -  °F | °C
As of 8:30 PM on Wednesday 22 Oct 2014 (Local Time) from UTSA Reporting Station
Broken Clouds Broken Clouds  
Wind Chill: 68°   Ceiling: 13000
Heat Index: 68°   Visibility: 4mi
Dew Point: 48°   Wind: 4mph
Humidity: 49%   Direction: 260°W
Pressure: 29.83"   Gusts: NA
Location:  40.08°N, 65.38°E
Report Text: UTSA 221530Z 26002MPS 6000 SCT037 BKN130 20/09 Q1010 R25/CLRD70NOSIG
Loading
Personal Weather Stations






























Interactive Weather Map
Tropical Storm Tracking
New forecast layout! Learn more

10-Day Weather Forecast

Advertisements
Track Severe Weather on mobile